createdAt,value
2023-04-18T00:01:38.386Z,100.00
2023-04-18T00:04:11.853Z,100.00
2023-04-18T00:06:45.040Z,100.00
2023-04-18T00:09:18.153Z,100.00
2023-04-18T00:11:52.970Z,100.00
2023-04-18T00:14:25.983Z,100.00
2023-04-18T00:16:59.115Z,100.00
2023-04-18T00:19:34.293Z,100.00
2023-04-18T00:22:08.330Z,100.00
2023-04-18T00:24:41.517Z,100.00
2023-04-18T00:27:15.903Z,100.00
2023-04-18T00:29:49.749Z,100.00
2023-04-18T00:32:22.815Z,100.00
2023-04-18T00:34:55.930Z,100.00
2023-04-18T00:37:29.904Z,100.00
2023-04-18T00:40:02.936Z,100.00
2023-04-18T00:42:37.420Z,100.00
2023-04-18T00:45:11.767Z,100.00
2023-04-18T00:47:44.820Z,100.00
2023-04-18T00:50:18.038Z,100.00
2023-04-18T00:52:51.965Z,100.00
2023-04-18T00:55:25.700Z,100.00
2023-04-18T00:58:00.246Z,100.00
2023-04-18T01:00:33.292Z,100.00
2023-04-18T01:03:06.725Z,100.00
2023-04-18T01:05:39.873Z,100.00
2023-04-18T01:08:13.348Z,100.00
2023-04-18T01:10:46.575Z,100.00
2023-04-18T01:13:21.829Z,100.00
2023-04-18T01:15:55.710Z,100.00
2023-04-18T01:18:31.519Z,100.00
2023-04-18T01:21:06.146Z,100.00
2023-04-18T01:23:39.290Z,100.00
2023-04-18T01:26:13.788Z,100.00
2023-04-18T01:28:46.821Z,100.00
2023-04-18T01:31:19.893Z,100.00
2023-04-18T01:33:52.971Z,100.00
2023-04-18T01:36:27.185Z,100.00
2023-04-18T01:39:00.807Z,100.00
2023-04-18T01:41:35.225Z,100.00
2023-04-18T01:44:08.265Z,100.00
2023-04-18T01:46:41.355Z,100.00
2023-04-18T01:49:14.474Z,100.00
2023-04-18T01:51:47.505Z,99.83
2023-04-18T01:54:20.602Z,100.00
2023-04-18T01:56:54.984Z,99.50
2023-04-18T01:59:28.109Z,99.94
2023-04-18T02:02:01.273Z,99.91
2023-04-18T02:04:34.358Z,98.92
2023-04-18T02:07:07.720Z,99.30
2023-04-18T02:09:40.783Z,99.59
2023-04-18T02:12:15.216Z,99.98
2023-04-18T02:14:53.491Z,100.00
2023-04-18T02:17:26.627Z,99.95
2023-04-18T02:20:00.617Z,100.00
2023-04-18T02:22:33.651Z,100.00
2023-04-18T02:25:07.941Z,99.78
2023-04-18T02:27:42.379Z,98.80
2023-04-18T02:30:15.983Z,98.66
2023-04-18T02:32:52.118Z,99.12
2023-04-18T02:35:26.391Z,99.06
2023-04-18T02:37:59.388Z,99.26
2023-04-18T02:40:32.384Z,99.62
2023-04-18T02:43:06.873Z,98.64
2023-04-18T02:45:39.944Z,98.64
2023-04-18T02:48:13.007Z,99.57
2023-04-18T02:50:46.178Z,99.08
2023-04-18T02:53:19.324Z,98.86
2023-04-18T02:55:52.396Z,99.43
2023-04-18T02:58:27.538Z,97.94
2023-04-18T03:01:00.623Z,98.56
2023-04-18T03:03:33.761Z,97.57
2023-04-18T03:06:07.168Z,98.51
2023-04-18T03:08:41.068Z,98.25
2023-04-18T03:11:14.130Z,98.87
2023-04-18T03:13:48.493Z,99.29
2023-04-18T03:16:21.817Z,99.71
2023-04-18T03:18:54.927Z,100.00
2023-04-18T03:21:28.401Z,99.62
2023-04-18T03:24:01.596Z,98.49
2023-04-18T03:26:34.620Z,98.33
2023-04-18T03:29:09.058Z,99.08
2023-04-18T03:31:42.383Z,98.85
2023-04-18T03:34:15.708Z,99.53
2023-04-18T03:36:48.998Z,99.75
2023-04-18T03:39:22.212Z,98.73
2023-04-18T03:41:55.221Z,98.45
2023-04-18T03:44:29.684Z,97.92
2023-04-18T03:47:02.795Z,99.13
2023-04-18T03:49:35.919Z,98.53
2023-04-18T03:52:08.996Z,98.33
2023-04-18T03:54:42.092Z,98.97
2023-04-18T03:57:15.178Z,96.49
2023-04-18T03:59:49.585Z,96.76
2023-04-18T04:02:22.783Z,98.61
2023-04-18T04:04:55.920Z,98.32
2023-04-18T04:07:28.988Z,97.58
2023-04-18T04:10:02.140Z,97.56
2023-04-18T04:12:35.917Z,97.51
2023-04-18T04:15:12.372Z,97.55
2023-04-18T04:17:45.425Z,97.79
2023-04-18T04:20:23.968Z,97.28
2023-04-18T04:22:58.814Z,97.59
2023-04-18T04:25:33.229Z,97.45
2023-04-18T04:28:06.805Z,97.83
2023-04-18T04:30:41.881Z,98.14
2023-04-18T04:33:14.883Z,97.25
2023-04-18T04:35:49.803Z,97.45
2023-04-18T04:38:24.014Z,97.79
2023-04-18T04:40:57.413Z,98.85
2023-04-18T04:43:30.820Z,99.24
2023-04-18T04:46:07.780Z,99.12
2023-04-18T04:48:40.916Z,99.64
2023-04-18T04:51:13.930Z,98.98
2023-04-18T04:53:47.021Z,98.75
2023-04-18T04:56:20.591Z,98.86
2023-04-18T04:58:56.120Z,97.52
2023-04-18T05:01:30.648Z,97.43
2023-04-18T05:04:03.973Z,97.26
2023-04-18T05:06:40.058Z,96.72
2023-04-18T05:09:14.501Z,96.50
2023-04-18T05:11:49.357Z,96.26
2023-04-18T05:14:22.422Z,96.13
2023-04-18T05:16:56.976Z,95.82
2023-04-18T05:19:29.996Z,95.53
2023-04-18T05:22:03.148Z,96.45
2023-04-18T05:24:36.233Z,96.01
2023-04-18T05:27:09.906Z,96.77
2023-04-18T05:29:43.058Z,97.42
2023-04-18T05:32:17.666Z,96.83
2023-04-18T05:34:51.111Z,96.22
2023-04-18T05:37:24.162Z,95.11
2023-04-18T05:39:59.310Z,95.33
2023-04-18T05:42:33.617Z,94.89
2023-04-18T05:45:08.081Z,95.99
2023-04-18T05:47:42.505Z,94.82
2023-04-18T05:50:15.569Z,94.96
2023-04-18T05:52:48.732Z,93.83
2023-04-18T05:55:21.964Z,93.50
2023-04-18T05:57:55.041Z,92.52
2023-04-18T06:00:28.184Z,91.85
2023-04-18T06:03:02.777Z,90.00
2023-04-18T06:05:36.137Z,89.80
2023-04-18T06:08:09.351Z,91.64
2023-04-18T06:10:42.420Z,90.11
2023-04-18T06:13:15.512Z,90.33
2023-04-18T06:15:48.587Z,88.97
2023-04-18T06:18:23.044Z,88.76
2023-04-18T06:20:56.179Z,89.06
2023-04-18T06:23:29.306Z,91.25
2023-04-18T06:26:02.398Z,91.36
2023-04-18T06:28:35.650Z,91.95
2023-04-18T06:31:09.328Z,91.60
2023-04-18T06:33:43.833Z,90.40
2023-04-18T06:36:16.923Z,91.42
2023-04-18T06:38:50.178Z,91.12
2023-04-18T06:41:25.118Z,91.79
2023-04-18T06:44:03.353Z,91.20
2023-04-18T06:46:37.651Z,92.75
2023-04-18T06:49:12.133Z,91.78
2023-04-18T06:51:45.212Z,91.55
2023-04-18T06:54:18.251Z,91.59
2023-04-18T06:56:51.408Z,90.89
2023-04-18T06:59:24.480Z,91.23
2023-04-18T07:01:57.757Z,93.02
2023-04-18T07:04:32.205Z,92.34
2023-04-18T07:07:05.771Z,91.55
2023-04-18T07:09:38.801Z,90.55
2023-04-18T07:12:11.858Z,91.24
2023-04-18T07:14:44.914Z,91.41
2023-04-18T07:17:18.030Z,91.02
2023-04-18T07:19:52.466Z,91.90
2023-04-18T07:22:25.543Z,91.18
2023-04-18T07:24:58.621Z,90.91
2023-04-18T07:27:31.830Z,90.64
2023-04-18T07:30:05.887Z,90.20
2023-04-18T07:32:39.188Z,91.82
2023-04-18T07:35:13.610Z,91.87
2023-04-18T07:37:46.887Z,89.72
2023-04-18T07:40:20.132Z,88.84
2023-04-18T07:42:53.155Z,88.60
2023-04-18T07:45:26.428Z,89.21
2023-04-18T07:47:59.528Z,88.76
2023-04-18T07:50:33.981Z,87.49
2023-04-18T07:53:08.224Z,86.70
2023-04-18T07:55:41.269Z,87.87
2023-04-18T07:58:14.592Z,86.01
2023-04-18T08:00:47.977Z,84.23
2023-04-18T08:03:21.338Z,83.61
2023-04-18T08:05:55.877Z,84.22
2023-04-18T08:08:29.090Z,83.95
2023-04-18T08:11:02.467Z,84.18
2023-04-18T08:13:35.633Z,84.43
2023-04-18T08:16:09.620Z,83.76
2023-04-18T08:18:42.679Z,85.32
2023-04-18T08:21:17.362Z,84.20
2023-04-18T08:23:50.428Z,84.49
2023-04-18T08:26:23.489Z,83.99
2023-04-18T08:28:56.512Z,82.80
2023-04-18T08:31:31.658Z,84.71
2023-04-18T08:34:05.205Z,85.29
2023-04-18T08:36:39.693Z,84.42
2023-04-18T08:39:13.551Z,84.38
2023-04-18T08:41:54.870Z,84.91
2023-04-18T08:44:29.438Z,84.43
2023-04-18T08:47:03.159Z,85.71
2023-04-18T08:49:36.281Z,84.40
2023-04-18T08:52:14.466Z,86.71
2023-04-18T08:54:49.082Z,85.39
2023-04-18T08:57:27.360Z,86.58
2023-04-18T09:00:02.065Z,85.87
2023-04-18T09:02:42.075Z,81.86
2023-04-18T09:05:19.135Z,82.15
2023-04-18T09:07:56.117Z,81.70
2023-04-18T09:10:32.559Z,80.20
2023-04-18T09:13:05.661Z,77.96
2023-04-18T09:15:38.680Z,77.16
2023-04-18T09:18:11.822Z,76.35
2023-04-18T09:20:47.588Z,76.90
2023-04-18T09:23:26.185Z,75.79
2023-04-18T09:25:59.222Z,76.90
2023-04-18T09:28:34.281Z,76.60
2023-04-18T09:31:11.975Z,75.62
2023-04-18T09:33:54.384Z,74.63
2023-04-18T09:36:28.401Z,74.84
2023-04-18T09:39:03.723Z,75.07
2023-04-18T09:41:36.738Z,76.25
2023-04-18T09:44:14.941Z,77.17
2023-04-18T09:46:49.435Z,78.57
2023-04-18T09:49:23.042Z,78.91
2023-04-18T09:51:57.141Z,78.46
2023-04-18T09:54:34.078Z,78.11
2023-04-18T09:57:11.263Z,78.29
2023-04-18T09:59:52.544Z,77.63
2023-04-18T10:02:29.360Z,77.05
2023-04-18T10:05:05.896Z,76.12
2023-04-18T10:07:39.729Z,74.53
2023-04-18T10:10:14.660Z,75.53
2023-04-18T10:12:50.749Z,75.03
2023-04-18T10:15:26.379Z,75.64
2023-04-18T10:18:05.902Z,75.43
2023-04-18T10:20:42.875Z,74.45
2023-04-18T10:23:37.482Z,74.93
2023-04-18T10:26:12.220Z,74.89
2023-04-18T10:28:54.378Z,73.57
2023-04-18T10:31:29.687Z,74.28
2023-04-18T10:34:07.490Z,72.65
2023-04-18T10:37:07.198Z,70.80
2023-04-18T10:40:00.282Z,70.31
2023-04-18T10:43:02.397Z,70.61
2023-04-18T10:45:36.597Z,71.34
2023-04-18T10:48:25.128Z,71.31
2023-04-18T10:51:18.867Z,70.13
2023-04-18T10:53:55.590Z,71.09
2023-04-18T10:56:29.267Z,69.93
2023-04-18T10:59:05.004Z,70.21
2023-04-18T11:01:40.687Z,71.47
2023-04-18T11:04:15.423Z,70.86
2023-04-18T11:06:50.584Z,71.06
2023-04-18T11:09:24.108Z,72.53
2023-04-18T11:12:08.305Z,71.35
2023-04-18T11:14:43.370Z,72.64
2023-04-18T11:17:22.226Z,70.46
2023-04-18T11:20:04.985Z,66.90
2023-04-18T11:22:48.560Z,70.04
2023-04-18T11:25:25.998Z,69.68
2023-04-18T11:28:01.142Z,69.39
2023-04-18T11:30:40.267Z,68.69
2023-04-18T11:33:14.967Z,69.85
2023-04-18T11:35:48.277Z,69.60
2023-04-18T11:38:22.769Z,69.63
2023-04-18T11:40:57.505Z,68.45
2023-04-18T11:43:30.608Z,69.78
2023-04-18T11:46:05.101Z,68.03
2023-04-18T11:48:39.367Z,68.83
2023-04-18T11:51:35.633Z,67.49
2023-04-18T11:54:39.633Z,67.43
2023-04-18T11:57:24.908Z,66.37
2023-04-18T12:00:01.600Z,65.98
2023-04-18T12:02:44.062Z,64.72
2023-04-18T12:05:26.533Z,63.62
2023-04-18T12:08:07.968Z,66.36
2023-04-18T12:10:48.015Z,65.36
2023-04-18T12:13:26.838Z,64.27
2023-04-18T12:16:02.873Z,63.85
2023-04-18T12:18:37.300Z,64.05
2023-04-18T12:21:10.717Z,63.74
2023-04-18T12:23:45.917Z,64.87
2023-04-18T12:26:19.167Z,63.21
2023-04-18T12:28:53.735Z,64.76
2023-04-18T12:31:28.625Z,63.29
2023-04-18T12:34:03.043Z,62.77
2023-04-18T12:36:36.171Z,62.82
2023-04-18T12:39:09.475Z,62.70
2023-04-18T12:41:42.464Z,62.59
2023-04-18T12:44:15.681Z,62.60
2023-04-18T12:46:48.803Z,62.45
2023-04-18T12:49:23.164Z,62.95
2023-04-18T12:51:56.091Z,62.21
2023-04-18T12:54:29.073Z,61.37
2023-04-18T12:57:03.304Z,60.02
2023-04-18T12:59:36.255Z,59.26
2023-04-18T13:02:09.355Z,60.08
2023-04-18T13:04:43.954Z,62.08
2023-04-18T13:07:17.150Z,62.17
2023-04-18T13:09:50.319Z,61.04
2023-04-18T13:12:23.273Z,59.46
2023-04-18T13:14:56.321Z,60.02
2023-04-18T13:17:29.458Z,60.54
2023-04-18T13:20:04.809Z,60.69
2023-04-18T13:22:38.261Z,61.98
2023-04-18T13:25:12.116Z,60.58
2023-04-18T13:27:45.860Z,60.61
2023-04-18T13:30:19.202Z,62.21
2023-04-18T13:32:52.265Z,61.73
2023-04-18T13:35:26.727Z,61.59
2023-04-18T13:37:59.923Z,60.46
2023-04-18T13:40:33.481Z,60.74
2023-04-18T13:43:06.477Z,60.36
2023-04-18T13:45:39.653Z,60.77
2023-04-18T13:48:14.434Z,62.46
2023-04-18T13:50:51.239Z,61.84
2023-04-18T13:53:24.379Z,63.54
2023-04-18T13:55:57.396Z,61.87
2023-04-18T13:58:30.634Z,61.13
2023-04-18T14:01:03.703Z,60.34
2023-04-18T14:03:38.795Z,59.88
2023-04-18T14:06:14.398Z,59.46
2023-04-18T14:08:47.432Z,60.03
2023-04-18T14:11:21.153Z,58.60
2023-04-18T14:13:54.275Z,57.76
2023-04-18T14:16:29.400Z,57.77
2023-04-18T14:19:03.666Z,58.12
2023-04-18T14:21:38.052Z,59.45
2023-04-18T14:24:11.102Z,59.44
2023-04-18T14:26:44.171Z,58.75
2023-04-18T14:29:17.316Z,57.78
2023-04-18T14:31:51.243Z,57.89
2023-04-18T14:34:24.278Z,57.99
2023-04-18T14:36:58.670Z,56.77
2023-04-18T14:39:32.052Z,56.92
2023-04-18T14:42:05.636Z,56.27
2023-04-18T14:44:38.830Z,56.29
2023-04-18T14:47:11.950Z,57.08
2023-04-18T14:49:45.031Z,56.35
2023-04-18T14:52:19.427Z,54.83
2023-04-18T14:54:52.613Z,54.19
2023-04-18T14:57:26.497Z,55.23
2023-04-18T14:59:59.537Z,55.38
2023-04-18T15:02:32.669Z,56.66
2023-04-18T15:05:07.514Z,54.46
2023-04-18T15:07:43.480Z,54.85
2023-04-18T15:10:16.693Z,55.71
2023-04-18T15:12:51.089Z,56.11
2023-04-18T15:15:25.183Z,57.28
2023-04-18T15:17:58.429Z,58.08
2023-04-18T15:20:31.836Z,58.71
2023-04-18T15:23:06.432Z,60.15
2023-04-18T15:25:39.496Z,60.37
2023-04-18T15:28:13.501Z,60.67
2023-04-18T15:30:46.790Z,59.80
2023-04-18T15:33:20.498Z,60.53
2023-04-18T15:35:53.769Z,61.60
2023-04-18T15:38:28.183Z,61.33
2023-04-18T15:41:01.202Z,62.05
2023-04-18T15:43:34.282Z,64.04
2023-04-18T15:46:07.380Z,63.67
2023-04-18T15:48:40.502Z,64.32
2023-04-18T15:51:13.536Z,64.08
2023-04-18T15:53:47.957Z,65.53
2023-04-18T15:56:21.101Z,66.40
2023-04-18T15:58:57.332Z,65.53
2023-04-18T16:01:30.797Z,65.57
2023-04-18T16:04:03.992Z,65.82
2023-04-18T16:06:37.497Z,66.27
2023-04-18T16:09:11.932Z,65.93
2023-04-18T16:11:45.106Z,67.52
2023-04-18T16:14:18.285Z,66.63
2023-04-18T16:16:52.682Z,66.90
2023-04-18T16:19:25.844Z,67.05
2023-04-18T16:21:58.986Z,67.71
2023-04-18T16:24:33.333Z,67.20
2023-04-18T16:27:06.654Z,67.48
2023-04-18T16:29:39.674Z,66.79
2023-04-18T16:32:12.709Z,66.98
2023-04-18T16:34:45.867Z,66.01
2023-04-18T16:37:18.894Z,66.30
2023-04-18T16:39:56.522Z,67.25
2023-04-18T16:46:03.210Z,66.58
2023-04-18T16:48:38.653Z,68.14
2023-04-18T16:51:13.091Z,68.40
2023-04-18T16:53:46.722Z,69.44
2023-04-18T16:56:21.148Z,69.94
2023-04-18T16:58:54.255Z,68.74
2023-04-18T17:01:27.346Z,69.08
2023-04-18T17:04:00.513Z,69.63
2023-04-18T17:06:34.018Z,70.05
2023-04-18T17:09:07.164Z,70.15
2023-04-18T17:11:41.952Z,70.32
2023-04-18T17:14:15.288Z,70.25
2023-04-18T17:16:50.702Z,70.25
2023-04-18T17:19:26.286Z,71.16
2023-04-18T17:21:59.358Z,71.68
2023-04-18T17:24:32.568Z,71.07
2023-04-18T17:27:06.961Z,72.08
2023-04-18T17:29:40.867Z,72.73
2023-04-18T17:32:14.556Z,71.73
2023-04-18T17:34:47.870Z,71.81
2023-04-18T17:37:22.363Z,72.27
2023-04-18T17:39:57.722Z,72.16
2023-04-18T17:42:32.293Z,71.72
2023-04-18T17:45:06.632Z,72.63
2023-04-18T17:47:40.817Z,73.75
2023-04-18T17:50:13.941Z,74.02
2023-04-18T17:52:47.205Z,74.34
2023-04-18T17:55:20.643Z,74.83
2023-04-18T17:57:54.986Z,75.14
2023-04-18T18:00:28.383Z,74.74
2023-04-18T18:03:02.451Z,74.86
2023-04-18T18:05:35.614Z,76.21
2023-04-18T18:08:08.752Z,76.65
2023-04-18T18:10:42.623Z,76.31
2023-04-18T18:13:16.995Z,75.79
2023-04-18T18:15:50.021Z,76.08
2023-04-18T18:18:24.276Z,76.26
2023-04-18T18:20:58.128Z,76.26
2023-04-18T18:23:31.265Z,76.35
2023-04-18T18:26:06.517Z,76.71
2023-04-18T18:28:40.911Z,78.29
2023-04-18T18:31:13.958Z,77.74
2023-04-18T18:33:47.012Z,77.92
2023-04-18T18:36:20.110Z,77.50
2023-04-18T18:38:53.103Z,77.35
2023-04-18T18:41:26.197Z,77.40
2023-04-18T18:44:00.665Z,77.73
2023-04-18T18:46:33.780Z,78.49
2023-04-18T18:49:08.032Z,77.72
2023-04-18T18:51:41.246Z,78.21
2023-04-18T18:54:14.377Z,78.62
2023-04-18T18:56:47.385Z,79.02
2023-04-18T18:59:21.773Z,78.26
2023-04-18T19:01:54.844Z,79.25
2023-04-18T19:04:28.157Z,80.21
2023-04-18T19:07:01.237Z,79.43
2023-04-18T19:09:34.301Z,79.09
2023-04-18T19:12:08.179Z,79.28
2023-04-18T19:14:42.589Z,80.15
2023-04-18T19:17:17.603Z,79.60
2023-04-18T19:19:50.672Z,80.50
2023-04-18T19:22:23.701Z,80.20
2023-04-18T19:24:57.273Z,80.49
2023-04-18T19:27:31.115Z,80.32
2023-04-18T19:30:06.888Z,80.92
2023-04-18T19:32:40.112Z,81.69
2023-04-18T19:35:13.341Z,81.73
2023-04-18T19:37:46.710Z,82.27
2023-04-18T19:40:20.007Z,81.13
2023-04-18T19:42:53.247Z,80.29
2023-04-18T19:45:27.672Z,82.14
2023-04-18T19:48:00.838Z,81.66
2023-04-18T19:50:34.060Z,82.40
2023-04-18T19:53:07.102Z,80.29
2023-04-18T19:55:40.102Z,81.64
2023-04-18T19:58:13.161Z,81.57
2023-04-18T20:00:47.554Z,82.30
2023-04-18T20:03:20.716Z,83.16
2023-04-18T20:05:53.913Z,83.58
2023-04-18T20:08:26.959Z,82.68
2023-04-18T20:11:00.003Z,82.46
2023-04-18T20:13:33.039Z,82.42
2023-04-18T20:16:10.928Z,83.42
2023-04-18T20:18:45.619Z,83.43
2023-04-18T20:21:18.685Z,83.92
2023-04-18T20:23:51.704Z,84.17
2023-04-18T20:26:24.813Z,83.82
2023-04-18T20:28:57.845Z,85.23
2023-04-18T20:31:32.221Z,86.08
2023-04-18T20:34:05.237Z,85.64
2023-04-18T20:36:41.511Z,86.74
2023-04-18T20:39:15.414Z,86.61
2023-04-18T20:41:51.444Z,86.99
2023-04-18T20:44:24.868Z,87.84
2023-04-18T20:46:59.407Z,87.62
2023-04-18T20:49:34.023Z,85.85
2023-04-18T20:52:09.837Z,86.55
2023-04-18T20:54:43.041Z,85.87
2023-04-18T20:57:16.096Z,86.75
2023-04-18T20:59:49.088Z,86.88
2023-04-18T21:02:23.571Z,87.32
2023-04-18T21:04:56.688Z,86.64
2023-04-18T21:07:31.114Z,87.08
2023-04-18T21:10:04.518Z,87.68
2023-04-18T21:12:37.554Z,87.66
2023-04-18T21:15:11.783Z,86.63
2023-04-18T21:17:46.430Z,87.36
2023-04-18T21:20:20.174Z,86.39
2023-04-18T21:22:53.212Z,87.04
2023-04-18T21:25:26.363Z,86.17
2023-04-18T21:28:00.137Z,85.38
2023-04-18T21:30:33.490Z,85.30
2023-04-18T21:33:07.879Z,86.27
2023-04-18T21:35:40.954Z,87.57
2023-04-18T21:38:14.000Z,87.23
2023-04-18T21:40:47.018Z,86.69
2023-04-18T21:43:20.049Z,87.04
2023-04-18T21:45:53.183Z,87.30
2023-04-18T21:48:27.579Z,87.46
2023-04-18T21:51:01.004Z,87.01
2023-04-18T21:53:34.397Z,86.20
2023-04-18T21:56:08.836Z,84.53
2023-04-18T21:58:42.303Z,85.15
2023-04-18T22:01:15.469Z,86.00
2023-04-18T22:03:50.154Z,86.95
2023-04-18T22:06:23.553Z,87.01
2023-04-18T22:08:56.588Z,86.42
2023-04-18T22:11:29.789Z,86.84
2023-04-18T22:14:02.795Z,86.18
2023-04-18T22:16:35.859Z,85.19
2023-04-18T22:19:10.873Z,85.29
2023-04-18T22:21:43.936Z,86.43
2023-04-18T22:24:18.285Z,86.30
2023-04-18T22:26:51.399Z,87.02
2023-04-18T22:29:24.479Z,86.59
2023-04-18T22:31:57.549Z,86.76
2023-04-18T22:34:32.008Z,87.06
2023-04-18T22:37:05.126Z,86.75
2023-04-18T22:39:38.132Z,87.15
2023-04-18T22:42:11.123Z,87.76
2023-04-18T22:44:44.183Z,87.08
2023-04-18T22:47:17.186Z,88.32
2023-04-18T22:49:51.780Z,87.30
2023-04-18T22:52:26.028Z,87.58
2023-04-18T22:54:59.025Z,86.94
2023-04-18T22:57:32.103Z,88.67
2023-04-18T23:00:06.806Z,88.50
2023-04-18T23:02:39.989Z,88.29
2023-04-18T23:05:15.956Z,87.32
2023-04-18T23:07:48.974Z,87.46
2023-04-18T23:10:23.414Z,88.53
2023-04-18T23:12:56.458Z,89.16
2023-04-18T23:15:29.440Z,88.29
2023-04-18T23:18:02.492Z,88.33
2023-04-18T23:20:37.834Z,88.75
2023-04-18T23:23:10.831Z,89.33
2023-04-18T23:25:44.144Z,88.64
2023-04-18T23:28:17.214Z,90.28
2023-04-18T23:30:50.754Z,90.06
2023-04-18T23:33:23.753Z,89.56
2023-04-18T23:35:58.183Z,88.98
2023-04-18T23:38:32.304Z,87.97
2023-04-18T23:41:05.550Z,88.65
2023-04-18T23:43:38.531Z,89.60
2023-04-18T23:46:12.168Z,88.64
2023-04-18T23:48:45.212Z,89.14
2023-04-18T23:51:19.615Z,89.35
2023-04-18T23:53:52.580Z,89.04
2023-04-18T23:56:25.643Z,88.46
2023-04-18T23:58:58.859Z,88.86
